メインページ
METAR-TAF:

METAR-TAF

空港 :

パゴパゴ国際空港

パゴパゴ, 合衆国領有小離島

緯度: 14-20S, 経度: 170-43W, 海抜: 3m

現時点の気象観測

当レポートは50分前の08:50(UTC)に作成
変向風 3kt
気温 28°C
湿度 79%
気圧 1007 hPa
視程: 16.1km
高度1700ftの雲は散在している
高度4000ftの千切れ雲あり
高度10000ftの千切れ雲あり

METAR: NSTU 160850Z VRB03KT 10SM SCT017 BKN040 BKN100 28/24 A2973 RMK SLP066 8/820 T02750242 50000

時間: 22:40 (09:40 UTC)

予報

当レポートは4時間8分前の05:32(UTC)に作成
予報は16日の 06時(UTC)から 17日の 06時(UTC)まで有効
北/北西の風 11kt
視程: 10km
高度1500ftの雲は散在している
高度3500ftの千切れ雲あり
高度10000ftの曇り
近辺でにわか雨

TAF: NSTU 160532Z 1606/1706 33011KT P6SM VCSH SCT015 BKN035 OVC100

4,000以上の空港の気象観測と天気予報(METAR報とTAF報)

利用可能な観測所は地図上に黄色い丸と赤い丸で示す。

丸の上にカーソルを重ねると観測所名を参照できる。

次にクリックすると気象観測と天気予報を参照できる。

マップの切り替え:黒色「×」印の緑ボタンをクリックして拡大、「-」印の緑ボタンをクリックして縮小、緑色の三角印をクリックして隣りの地図に切り替え


METAR-TAF: